sensor_id;sensor_type;location;lat;lon;timestamp;pressure;altitude;pressure_sealevel;temperature;humidity
53758;BME280;39674;59.860;30.672;2023-09-12T00:01:05;101243.78;;;12.60;100.00
53758;BME280;39674;59.860;30.672;2023-09-12T00:03:33;101240.38;;;12.58;100.00
53758;BME280;39674;59.860;30.672;2023-09-12T00:06:01;101237.88;;;12.55;100.00
53758;BME280;39674;59.860;30.672;2023-09-12T00:08:29;101238.03;;;12.52;100.00
53758;BME280;39674;59.860;30.672;2023-09-12T00:10:59;101239.91;;;12.50;100.00
53758;BME280;39674;59.860;30.672;2023-09-12T00:13:27;101238.19;;;12.49;100.00
53758;BME280;39674;59.860;30.672;2023-09-12T00:15:56;101240.84;;;12.49;100.00
53758;BME280;39674;59.860;30.672;2023-09-12T00:18:25;101236.63;;;12.45;100.00
53758;BME280;39674;59.860;30.672;2023-09-12T00:20:53;101235.06;;;12.41;100.00
53758;BME280;39674;59.860;30.672;2023-09-12T00:23:21;101242.38;;;12.35;100.00
53758;BME280;39674;59.860;30.672;2023-09-12T00:25:50;101232.97;;;12.30;100.00
53758;BME280;39674;59.860;30.672;2023-09-12T00:28:19;101238.41;;;12.27;100.00
53758;BME280;39674;59.860;30.672;2023-09-12T00:30:47;101241.19;;;12.24;100.00
53758;BME280;39674;59.860;30.672;2023-09-12T00:33:15;101247.59;;;12.19;100.00
53758;BME280;39674;59.860;30.672;2023-09-12T00:35:45;101243.41;;;12.15;100.00
53758;BME280;39674;59.860;30.672;2023-09-12T00:38:13;101250.47;;;12.15;100.00
53758;BME280;39674;59.860;30.672;2023-09-12T00:40:42;101246.09;;;12.14;100.00
53758;BME280;39674;59.860;30.672;2023-09-12T00:43:10;101243.44;;;12.14;100.00
53758;BME280;39674;59.860;30.672;2023-09-12T00:45:38;101242.59;;;12.13;100.00
53758;BME280;39674;59.860;30.672;2023-09-12T00:48:07;101245.34;;;12.12;100.00
53758;BME280;39674;59.860;30.672;2023-09-12T00:50:35;101242.78;;;12.10;100.00
53758;BME280;39674;59.860;30.672;2023-09-12T00:53:06;101241.09;;;12.08;100.00
53758;BME280;39674;59.860;30.672;2023-09-12T00:55:35;101248.28;;;12.06;100.00
53758;BME280;39674;59.860;30.672;2023-09-12T00:58:05;101252.78;;;12.03;100.00
53758;BME280;39674;59.860;30.672;2023-09-12T01:00:34;101247.59;;;12.02;100.00
53758;BME280;39674;59.860;30.672;2023-09-12T01:03:02;101250.38;;;11.99;100.00
53758;BME280;39674;59.860;30.672;2023-09-12T01:05:31;101246.09;;;11.96;100.00
53758;BME280;39674;59.860;30.672;2023-09-12T01:08:00;101250.50;;;11.96;100.00
53758;BME280;39674;59.860;30.672;2023-09-12T01:10:31;101258.50;;;11.94;100.00
53758;BME280;39674;59.860;30.672;2023-09-12T01:12:59;101258.66;;;11.91;100.00
53758;BME280;39674;59.860;30.672;2023-09-12T01:15:27;101263.16;;;11.89;100.00
53758;BME280;39674;59.860;30.672;2023-09-12T01:17:56;101257.94;;;11.87;100.00
53758;BME280;39674;59.860;30.672;2023-09-12T01:20:25;101257.09;;;11.87;100.00
53758;BME280;39674;59.860;30.672;2023-09-12T01:22:58;101254.50;;;11.85;100.00
53758;BME280;39674;59.860;30.672;2023-09-12T01:25:45;101255.50;;;11.83;100.00
53758;BME280;39674;59.860;30.672;2023-09-12T01:28:22;101261.81;;;11.80;100.00
53758;BME280;39674;59.860;30.672;2023-09-12T01:30:52;101254.03;;;11.77;100.00
53758;BME280;39674;59.860;30.672;2023-09-12T01:33:21;101252.38;;;11.75;100.00
53758;BME280;39674;59.860;30.672;2023-09-12T01:35:49;101252.53;;;11.71;100.00
53758;BME280;39674;59.860;30.672;2023-09-12T01:38:17;101245.59;;;11.69;100.00
53758;BME280;39674;59.860;30.672;2023-09-12T01:40:47;101250.09;;;11.67;100.00
53758;BME280;39674;59.860;30.672;2023-09-12T01:43:16;101257.25;;;11.65;100.00
53758;BME280;39674;59.860;30.672;2023-09-12T01:45:46;101251.09;;;11.64;100.00
53758;BME280;39674;59.860;30.672;2023-09-12T01:48:16;101251.28;;;11.61;100.00
53758;BME280;39674;59.860;30.672;2023-09-12T01:50:47;101247.81;;;11.59;100.00
53758;BME280;39674;59.860;30.672;2023-09-12T01:53:15;101243.53;;;11.56;100.00
53758;BME280;39674;59.860;30.672;2023-09-12T01:55:45;101246.22;;;11.55;100.00
53758;BME280;39674;59.860;30.672;2023-09-12T01:58:13;101242.81;;;11.53;100.00
53758;BME280;39674;59.860;30.672;2023-09-12T02:00:42;101242.97;;;11.50;100.00
53758;BME280;39674;59.860;30.672;2023-09-12T02:03:11;101240.47;;;11.47;100.00
53758;BME280;39674;59.860;30.672;2023-09-12T02:05:39;101240.69;;;11.42;100.00
53758;BME280;39674;59.860;30.672;2023-09-12T02:08:08;101232.94;;;11.37;100.00
53758;BME280;39674;59.860;30.672;2023-09-12T02:10:36;101240.25;;;11.32;100.00
53758;BME280;39674;59.860;30.672;2023-09-12T02:13:05;101233.41;;;11.28;100.00
53758;BME280;39674;59.860;30.672;2023-09-12T02:15:33;101242.38;;;11.24;100.00
53758;BME280;39674;59.860;30.672;2023-09-12T02:18:01;101245.09;;;11.22;100.00
53758;BME280;39674;59.860;30.672;2023-09-12T02:20:31;101239.81;;;11.22;100.00
53758;BME280;39674;59.860;30.672;2023-09-12T02:23:00;101234.72;;;11.18;100.00
53758;BME280;39674;59.860;30.672;2023-09-12T02:25:29;101233.16;;;11.14;100.00
53758;BME280;39674;59.860;30.672;2023-09-12T02:27:58;101233.25;;;11.12;100.00
53758;BME280;39674;59.860;30.672;2023-09-12T02:30:29;101234.09;;;11.13;100.00
53758;BME280;39674;59.860;30.672;2023-09-12T02:32:57;101230.59;;;11.12;100.00
53758;BME280;39674;59.860;30.672;2023-09-12T02:35:27;101233.25;;;11.12;100.00
53758;BME280;39674;59.860;30.672;2023-09-12T02:37:58;101229.72;;;11.12;100.00
53758;BME280;39674;59.860;30.672;2023-09-12T02:40:26;101230.81;;;11.07;100.00
53758;BME280;39674;59.860;30.672;2023-09-12T02:42:55;101230.84;;;11.06;100.00
53758;BME280;39674;59.860;30.672;2023-09-12T02:45:23;101230.22;;;11.01;100.00
53758;BME280;39674;59.860;30.672;2023-09-12T02:47:51;101227.63;;;10.99;100.00
53758;BME280;39674;59.860;30.672;2023-09-12T02:50:19;101225.06;;;10.98;100.00
53758;BME280;39674;59.860;30.672;2023-09-12T02:52:48;101222.47;;;10.96;100.00
53758;BME280;39674;59.860;30.672;2023-09-12T02:55:17;101229.63;;;10.94;100.00
53758;BME280;39674;59.860;30.672;2023-09-12T02:57:46;101224.47;;;10.91;100.00
53758;BME280;39674;59.860;30.672;2023-09-12T03:00:14;101230.75;;;10.88;100.00
53758;BME280;39674;59.860;30.672;2023-09-12T03:02:43;101227.19;;;10.89;100.00
53758;BME280;39674;59.860;30.672;2023-09-12T03:05:12;101234.19;;;10.90;100.00
53758;BME280;39674;59.860;30.672;2023-09-12T03:07:40;101224.47;;;10.91;100.00
53758;BME280;39674;59.860;30.672;2023-09-12T03:10:08;101230.63;;;10.91;100.00
53758;BME280;39674;59.860;30.672;2023-09-12T03:12:38;101229.75;;;10.91;100.00
53758;BME280;39674;59.860;30.672;2023-09-12T03:15:07;101225.34;;;10.91;100.00
53758;BME280;39674;59.860;30.672;2023-09-12T03:17:36;101228.91;;;10.90;100.00
53758;BME280;39674;59.860;30.672;2023-09-12T03:20:04;101217.47;;;10.90;100.00
53758;BME280;39674;59.860;30.672;2023-09-12T03:22:35;101229.00;;;10.89;100.00
53758;BME280;39674;59.860;30.672;2023-09-12T03:25:05;101232.59;;;10.86;100.00
53758;BME280;39674;59.860;30.672;2023-09-12T03:27:34;101224.75;;;10.85;100.00
53758;BME280;39674;59.860;30.672;2023-09-12T03:30:04;101229.13;;;10.86;100.00
53758;BME280;39674;59.860;30.672;2023-09-12T03:32:33;101230.91;;;10.85;100.00
53758;BME280;39674;59.860;30.672;2023-09-12T03:35:01;101233.56;;;10.85;100.00
53758;BME280;39674;59.860;30.672;2023-09-12T03:37:29;101231.75;;;10.86;100.00
53758;BME280;39674;59.860;30.672;2023-09-12T03:39:58;101235.19;;;10.88;100.00
53758;BME280;39674;59.860;30.672;2023-09-12T03:42:26;101224.63;;;10.88;100.00
53758;BME280;39674;59.860;30.672;2023-09-12T03:44:55;101218.53;;;10.86;100.00
53758;BME280;39674;59.860;30.672;2023-09-12T03:47:25;101225.56;;;10.87;100.00
53758;BME280;39674;59.860;30.672;2023-09-12T03:49:53;101226.47;;;10.86;100.00
53758;BME280;39674;59.860;30.672;2023-09-12T03:52:21;101235.19;;;10.88;100.00
53758;BME280;39674;59.860;30.672;2023-09-12T03:54:50;101230.75;;;10.88;100.00
53758;BME280;39674;59.860;30.672;2023-09-12T03:57:19;101230.69;;;10.90;100.00
53758;BME280;39674;59.860;30.672;2023-09-12T03:59:47;101224.47;;;10.91;100.00
53758;BME280;39674;59.860;30.672;2023-09-12T04:02:15;101226.19;;;10.92;100.00
53758;BME280;39674;59.860;30.672;2023-09-12T04:04:46;101221.91;;;10.89;100.00
53758;BME280;39674;59.860;30.672;2023-09-12T04:07:14;101222.75;;;10.90;100.00
53758;BME280;39674;59.860;30.672;2023-09-12T04:09:42;101219.19;;;10.91;100.00
53758;BME280;39674;59.860;30.672;2023-09-12T04:12:10;101223.47;;;10.94;100.00
53758;BME280;39674;59.860;30.672;2023-09-12T04:14:38;101223.44;;;10.95;100.00
53758;BME280;39674;59.860;30.672;2023-09-12T04:17:07;101222.34;;;10.99;100.00
53758;BME280;39674;59.860;30.672;2023-09-12T04:19:36;101224.78;;;11.04;100.00
53758;BME280;39674;59.860;30.672;2023-09-12T04:22:05;101223.78;;;11.06;100.00
53758;BME280;39674;59.860;30.672;2023-09-12T04:24:34;101228.00;;;11.11;100.00
53758;BME280;39674;59.860;30.672;2023-09-12T04:27:02;101229.66;;;11.13;100.00
53758;BME280;39674;59.860;30.672;2023-09-12T04:29:32;101222.50;;;11.15;100.00
53758;BME280;39674;59.860;30.672;2023-09-12T04:32:01;101219.75;;;11.18;100.00
53758;BME280;39674;59.860;30.672;2023-09-12T04:34:30;101221.09;;;11.27;100.00
53758;BME280;39674;59.860;30.672;2023-09-12T04:37:07;101228.38;;;11.41;100.00
53758;BME280;39674;59.860;30.672;2023-09-12T04:39:35;101217.94;;;11.57;100.00
53758;BME280;39674;59.860;30.672;2023-09-12T04:42:04;101217.13;;;11.74;100.00
53758;BME280;39674;59.860;30.672;2023-09-12T04:44:35;101220.75;;;11.91;100.00
53758;BME280;39674;59.860;30.672;2023-09-12T04:47:03;101217.28;;;12.08;100.00
53758;BME280;39674;59.860;30.672;2023-09-12T04:49:32;101219.97;;;12.25;100.00
53758;BME280;39674;59.860;30.672;2023-09-12T04:52:00;101220.88;;;12.42;100.00
53758;BME280;39674;59.860;30.672;2023-09-12T04:54:30;101220.44;;;12.51;100.00
53758;BME280;39674;59.860;30.672;2023-09-12T04:56:59;101217.03;;;12.65;100.00
53758;BME280;39674;59.860;30.672;2023-09-12T04:59:28;101216.16;;;12.82;100.00
53758;BME280;39674;59.860;30.672;2023-09-12T05:01:56;101223.13;;;13.00;100.00
53758;BME280;39674;59.860;30.672;2023-09-12T05:04:25;101218.72;;;13.17;100.00
53758;BME280;39674;59.860;30.672;2023-09-12T05:06:53;101222.16;;;13.35;100.00
53758;BME280;39674;59.860;30.672;2023-09-12T05:09:21;101219.47;;;13.53;100.00
53758;BME280;39674;59.860;30.672;2023-09-12T05:11:51;101221.00;;;13.73;100.00
53758;BME280;39674;59.860;30.672;2023-09-12T05:14:20;101216.53;;;13.89;100.00
53758;BME280;39674;59.860;30.672;2023-09-12T05:16:48;101220.78;;;14.08;100.00
53758;BME280;39674;59.860;30.672;2023-09-12T05:19:17;101223.28;;;14.25;100.00
53758;BME280;39674;59.860;30.672;2023-09-12T05:21:45;101212.44;;;14.44;100.00
53758;BME280;39674;59.860;30.672;2023-09-12T05:24:14;101214.91;;;14.62;100.00
53758;BME280;39674;59.860;30.672;2023-09-12T05:26:42;101227.22;;;14.79;100.00
53758;BME280;39674;59.860;30.672;2023-09-12T05:29:14;101215.44;;;14.98;100.00
53758;BME280;39674;59.860;30.672;2023-09-12T05:31:42;101218.28;;;15.09;100.00
53758;BME280;39674;59.860;30.672;2023-09-12T05:34:11;101211.34;;;15.21;100.00
53758;BME280;39674;59.860;30.672;2023-09-12T05:36:39;101219.88;;;15.40;100.00
53758;BME280;39674;59.860;30.672;2023-09-12T05:39:09;101222.94;;;15.62;100.00
53758;BME280;39674;59.860;30.672;2023-09-12T05:41:37;101226.94;;;15.83;100.00
53758;BME280;39674;59.860;30.672;2023-09-12T05:44:06;101231.56;;;16.07;100.00
53758;BME280;39674;59.860;30.672;2023-09-12T05:46:36;101228.00;;;16.34;100.00
53758;BME280;39674;59.860;30.672;2023-09-12T05:49:04;101224.84;;;16.55;100.00
53758;BME280;39674;59.860;30.672;2023-09-12T05:51:33;101226.56;;;16.68;100.00
53758;BME280;39674;59.860;30.672;2023-09-12T05:54:02;101222.72;;;16.85;100.00
53758;BME280;39674;59.860;30.672;2023-09-12T05:56:30;101223.34;;;16.89;100.00
53758;BME280;39674;59.860;30.672;2023-09-12T05:59:02;101230.19;;;16.80;100.00
53758;BME280;39674;59.860;30.672;2023-09-12T06:01:31;101229.97;;;16.71;100.00
53758;BME280;39674;59.860;30.672;2023-09-12T06:04:05;101219.72;;;16.77;100.00
53758;BME280;39674;59.860;30.672;2023-09-12T06:06:33;101218.78;;;16.78;100.00
53758;BME280;39674;59.860;30.672;2023-09-12T06:09:04;101225.31;;;17.00;100.00
53758;BME280;39674;59.860;30.672;2023-09-12T06:11:32;101225.06;;;17.29;100.00
53758;BME280;39674;59.860;30.672;2023-09-12T06:14:03;101223.47;;;17.51;100.00
53758;BME280;39674;59.860;30.672;2023-09-12T06:16:32;101217.88;;;17.67;100.00
53758;BME280;39674;59.860;30.672;2023-09-12T06:25:47;101216.25;;;18.01;100.00
53758;BME280;39674;59.860;30.672;2023-09-12T06:28:24;101220.56;;;17.91;100.00
53758;BME280;39674;59.860;30.672;2023-09-12T06:30:54;101216.63;;;17.84;100.00
53758;BME280;39674;59.860;30.672;2023-09-12T06:33:24;101224.44;;;17.87;100.00
53758;BME280;39674;59.860;30.672;2023-09-12T06:35:54;101222.34;;;18.03;100.00
53758;BME280;39674;59.860;30.672;2023-09-12T06:38:32;101226.22;;;18.35;100.00
53758;BME280;39674;59.860;30.672;2023-09-12T06:41:03;101223.19;;;18.39;100.00
53758;BME280;39674;59.860;30.672;2023-09-12T06:43:31;101224.38;;;18.35;100.00
53758;BME280;39674;59.860;30.672;2023-09-12T06:46:00;101217.88;;;18.51;100.00
53758;BME280;39674;59.860;30.672;2023-09-12T06:48:29;101219.72;;;18.62;100.00
53758;BME280;39674;59.860;30.672;2023-09-12T06:50:59;101216.44;;;18.69;100.00
53758;BME280;39674;59.860;30.672;2023-09-12T06:53:28;101215.25;;;18.85;100.00
53758;BME280;39674;59.860;30.672;2023-09-12T06:55:57;101212.00;;;18.92;100.00
53758;BME280;39674;59.860;30.672;2023-09-12T06:58:27;101218.19;;;18.93;100.00
53758;BME280;39674;59.860;30.672;2023-09-12T07:00:55;101220.97;;;18.91;100.00
53758;BME280;39674;59.860;30.672;2023-09-12T07:03:24;101228.25;;;18.89;100.00
53758;BME280;39674;59.860;30.672;2023-09-12T07:05:53;101218.63;;;18.87;100.00
53758;BME280;39674;59.860;30.672;2023-09-12T07:08:22;101213.28;;;18.75;100.00
53758;BME280;39674;59.860;30.672;2023-09-12T07:10:50;101212.53;;;18.73;100.00
53758;BME280;39674;59.860;30.672;2023-09-12T07:13:22;101217.66;;;18.65;100.00
53758;BME280;39674;59.860;30.672;2023-09-12T07:15:52;101214.50;;;18.71;100.00
53758;BME280;39674;59.860;30.672;2023-09-12T07:18:20;101216.44;;;18.81;100.00
53758;BME280;39674;59.860;30.672;2023-09-12T07:20:56;101209.63;;;18.88;100.00
53758;BME280;39674;59.860;30.672;2023-09-12T07:23:25;101215.50;;;18.93;100.00
53758;BME280;39674;59.860;30.672;2023-09-12T07:25:54;101207.47;;;18.93;100.00
53758;BME280;39674;59.860;30.672;2023-09-12T07:28:24;101211.72;;;18.96;100.00
53758;BME280;39674;59.860;30.672;2023-09-12T07:30:55;101212.72;;;19.06;100.00
53758;BME280;39674;59.860;30.672;2023-09-12T07:33:23;101214.78;;;19.14;100.00
53758;BME280;39674;59.860;30.672;2023-09-12T07:35:52;101210.41;;;19.24;100.00
53758;BME280;39674;59.860;30.672;2023-09-12T07:38:23;101224.50;;;19.37;100.00
53758;BME280;39674;59.860;30.672;2023-09-12T07:40:52;101218.03;;;19.29;100.00
53758;BME280;39674;59.860;30.672;2023-09-12T07:43:21;101214.50;;;19.39;100.00
53758;BME280;39674;59.860;30.672;2023-09-12T07:45:59;101217.03;;;19.41;100.00
53758;BME280;39674;59.860;30.672;2023-09-12T07:48:29;101212.06;;;19.48;100.00
53758;BME280;39674;59.860;30.672;2023-09-12T07:50:57;101209.84;;;19.53;100.00
53758;BME280;39674;59.860;30.672;2023-09-12T07:53:28;101212.03;;;19.59;100.00
53758;BME280;39674;59.860;30.672;2023-09-12T07:55:59;101218.59;;;19.66;100.00
53758;BME280;39674;59.860;30.672;2023-09-12T07:58:31;101221.25;;;19.89;100.00
53758;BME280;39674;59.860;30.672;2023-09-12T08:01:13;101212.69;;;19.84;100.00
53758;BME280;39674;59.860;30.672;2023-09-12T08:03:43;101211.94;;;19.93;100.00
53758;BME280;39674;59.860;30.672;2023-09-12T08:06:13;101212.53;;;19.97;100.00
53758;BME280;39674;59.860;30.672;2023-09-12T08:08:42;101207.50;;;20.03;100.00
53758;BME280;39674;59.860;30.672;2023-09-12T08:11:12;101209.66;;;20.10;100.00
53758;BME280;39674;59.860;30.672;2023-09-12T08:13:42;101207.94;;;20.20;100.00
53758;BME280;39674;59.860;30.672;2023-09-12T08:19:07;101203.38;;;20.32;100.00
53758;BME280;39674;59.860;30.672;2023-09-12T08:21:36;101204.94;;;20.34;100.00
53758;BME280;39674;59.860;30.672;2023-09-12T08:24:07;101201.34;;;20.45;100.00
53758;BME280;39674;59.860;30.672;2023-09-12T08:26:36;101206.19;;;20.51;100.00
53758;BME280;39674;59.860;30.672;2023-09-12T08:29:06;101201.41;;;20.55;100.00
53758;BME280;39674;59.860;30.672;2023-09-12T08:31:35;101194.97;;;20.67;100.00
53758;BME280;39674;59.860;30.672;2023-09-12T08:34:10;101197.31;;;20.82;100.00
53758;BME280;39674;59.860;30.672;2023-09-12T08:36:44;101194.38;;;20.85;100.00
53758;BME280;39674;59.860;30.672;2023-09-12T08:39:14;101192.84;;;20.92;100.00
53758;BME280;39674;59.860;30.672;2023-09-12T08:41:52;101195.16;;;21.07;99.39
53758;BME280;39674;59.860;30.672;2023-09-12T08:44:34;101191.38;;;21.19;99.01
53758;BME280;39674;59.860;30.672;2023-09-12T08:47:06;101192.69;;;21.35;98.35
53758;BME280;39674;59.860;30.672;2023-09-12T08:49:42;101186.19;;;21.47;96.20
53758;BME280;39674;59.860;30.672;2023-09-12T08:52:11;101185.97;;;21.60;97.29
53758;BME280;39674;59.860;30.672;2023-09-12T08:54:46;101189.97;;;21.85;91.64
53758;BME280;39674;59.860;30.672;2023-09-12T08:57:26;101184.28;;;21.98;93.69
53758;BME280;39674;59.860;30.672;2023-09-12T09:00:03;101182.84;;;22.33;92.17
53758;BME280;39674;59.860;30.672;2023-09-12T09:02:47;101181.25;;;22.60;93.02
53758;BME280;39674;59.860;30.672;2023-09-12T09:05:25;101181.13;;;22.89;91.48
53758;BME280;39674;59.860;30.672;2023-09-12T09:07:57;101179.72;;;23.13;88.28
53758;BME280;39674;59.860;30.672;2023-09-12T09:10:33;101180.88;;;23.20;87.63
53758;BME280;39674;59.860;30.672;2023-09-12T09:13:18;101173.78;;;23.19;88.41
53758;BME280;39674;59.860;30.672;2023-09-12T09:15:48;101180.53;;;23.23;87.45
53758;BME280;39674;59.860;30.672;2023-09-12T09:18:32;101174.88;;;23.27;85.47
53758;BME280;39674;59.860;30.672;2023-09-12T09:22:04;101172.88;;;23.29;83.99
53758;BME280;39674;59.860;30.672;2023-09-12T09:24:38;101180.16;;;23.18;84.19
53758;BME280;39674;59.860;30.672;2023-09-12T09:27:36;101179.25;;;23.28;83.50
53758;BME280;39674;59.860;30.672;2023-09-12T09:30:42;101177.19;;;23.39;85.34
53758;BME280;39674;59.860;30.672;2023-09-12T09:33:26;101180.78;;;23.58;80.08
53758;BME280;39674;59.860;30.672;2023-09-12T09:36:07;101175.06;;;23.61;79.69
53758;BME280;39674;59.860;30.672;2023-09-12T09:39:08;101184.16;;;23.78;79.21
53758;BME280;39674;59.860;30.672;2023-09-12T09:41:59;101172.13;;;23.91;78.06
53758;BME280;39674;59.860;30.672;2023-09-12T09:44:30;101168.34;;;23.83;77.92
53758;BME280;39674;59.860;30.672;2023-09-12T09:47:53;101179.22;;;23.92;79.03
53758;BME280;39674;59.860;30.672;2023-09-12T09:50:36;101171.25;;;24.26;77.59
53758;BME280;39674;59.860;30.672;2023-09-12T09:53:28;101162.81;;;24.56;75.70
53758;BME280;39674;59.860;30.672;2023-09-12T09:56:12;101164.72;;;24.90;76.25
53758;BME280;39674;59.860;30.672;2023-09-12T09:58:57;101166.50;;;25.15;72.14
53758;BME280;39674;59.860;30.672;2023-09-12T10:01:59;101174.81;;;25.30;72.70
53758;BME280;39674;59.860;30.672;2023-09-12T10:04:43;101173.28;;;25.28;71.79
53758;BME280;39674;59.860;30.672;2023-09-12T10:07:29;101171.41;;;25.28;71.36
53758;BME280;39674;59.860;30.672;2023-09-12T10:10:37;101170.47;;;25.38;72.48
53758;BME280;39674;59.860;30.672;2023-09-12T10:13:22;101174.06;;;25.55;69.54
53758;BME280;39674;59.860;30.672;2023-09-12T10:16:14;101176.78;;;25.63;68.53
53758;BME280;39674;59.860;30.672;2023-09-12T10:19:15;101178.47;;;25.72;69.50
53758;BME280;39674;59.860;30.672;2023-09-12T10:22:04;101170.03;;;25.75;66.95
53758;BME280;39674;59.860;30.672;2023-09-12T10:24:42;101168.00;;;25.86;69.61
53758;BME280;39674;59.860;30.672;2023-09-12T10:27:25;101174.78;;;25.90;68.55
53758;BME280;39674;59.860;30.672;2023-09-12T10:30:51;101169.84;;;25.60;66.73
53758;BME280;39674;59.860;30.672;2023-09-12T10:33:33;101168.91;;;25.35;67.88
53758;BME280;39674;59.860;30.672;2023-09-12T10:36:45;101173.31;;;25.36;68.59
53758;BME280;39674;59.860;30.672;2023-09-12T10:39:55;101167.97;;;25.53;70.58
53758;BME280;39674;59.860;30.672;2023-09-12T10:42:52;101169.00;;;25.68;67.98
53758;BME280;39674;59.860;30.672;2023-09-12T10:59:28;101171.41;;;25.28;69.35
53758;BME280;39674;59.860;30.672;2023-09-12T11:05:03;101174.56;;;25.75;67.43
53758;BME280;39674;59.860;30.672;2023-09-12T11:07:44;101165.44;;;25.68;67.73
53758;BME280;39674;59.860;30.672;2023-09-12T11:10:27;101173.75;;;25.74;67.41
53758;BME280;39674;59.860;30.672;2023-09-12T11:13:20;101171.50;;;25.61;68.77
53758;BME280;39674;59.860;30.672;2023-09-12T11:16:17;101166.59;;;25.40;69.59
53758;BME280;39674;59.860;30.672;2023-09-12T11:19:39;101167.59;;;25.39;70.11
53758;BME280;39674;59.860;30.672;2023-09-12T11:22:27;101163.47;;;25.27;68.74
53758;BME280;39674;59.860;30.672;2023-09-12T11:25:18;101169.91;;;25.18;69.52
53758;BME280;39674;59.860;30.672;2023-09-12T11:30:58;101166.28;;;25.01;70.16
53758;BME280;39674;59.860;30.672;2023-09-12T11:40:41;101155.69;;;24.73;72.38
53758;BME280;39674;59.860;30.672;2023-09-12T11:43:27;101156.69;;;24.72;72.82
53758;BME280;39674;59.860;30.672;2023-09-12T11:46:02;101154.88;;;24.80;73.08
53758;BME280;39674;59.860;30.672;2023-09-12T11:49:02;101142.34;;;24.71;72.77
53758;BME280;39674;59.860;30.672;2023-09-12T11:51:52;101143.28;;;24.62;73.86
53758;BME280;39674;59.860;30.672;2023-09-12T11:54:26;101146.06;;;24.70;74.69
53758;BME280;39674;59.860;30.672;2023-09-12T11:57:23;101138.97;;;24.69;73.74
53758;BME280;39674;59.860;30.672;2023-09-12T12:00:06;101136.59;;;24.66;71.81
53758;BME280;39674;59.860;30.672;2023-09-12T12:03:01;101141.56;;;24.52;73.24
53758;BME280;39674;59.860;30.672;2023-09-12T12:05:37;101133.72;;;24.67;73.30
53758;BME280;39674;59.860;30.672;2023-09-12T12:08:13;101125.06;;;24.64;71.96
53758;BME280;39674;59.860;30.672;2023-09-12T12:11:03;101129.94;;;24.60;71.53
53758;BME280;39674;59.860;30.672;2023-09-12T12:13:35;101127.94;;;24.62;73.21
53758;BME280;39674;59.860;30.672;2023-09-12T12:16:17;101134.34;;;24.61;72.00
53758;BME280;39674;59.860;30.672;2023-09-12T12:19:06;101132.47;;;24.62;72.54
53758;BME280;39674;59.860;30.672;2023-09-12T12:26:05;101129.41;;;24.57;72.84
53758;BME280;39674;59.860;30.672;2023-09-12T12:28:41;101133.72;;;24.67;70.76
53758;BME280;39674;59.860;30.672;2023-09-12T12:31:53;101127.72;;;24.56;71.80
53758;BME280;39674;59.860;30.672;2023-09-12T12:36:22;101129.69;;;24.45;72.24
53758;BME280;39674;59.860;30.672;2023-09-12T12:42:12;101122.78;;;24.43;70.90
53758;BME280;39674;59.860;30.672;2023-09-12T12:45:08;101121.50;;;24.29;71.97
53758;BME280;39674;59.860;30.672;2023-09-12T12:48:42;101131.66;;;24.35;71.41
53758;BME280;39674;59.860;30.672;2023-09-12T12:52:25;101129.47;;;24.30;71.59
53758;BME280;39674;59.860;30.672;2023-09-12T12:55:25;101126.16;;;24.18;71.96
53758;BME280;39674;59.860;30.672;2023-09-12T13:08:46;101125.09;;;24.11;71.84
53758;BME280;39674;59.860;30.672;2023-09-12T13:12:09;101127.56;;;24.04;73.32
53758;BME280;39674;59.860;30.672;2023-09-12T13:15:10;101122.97;;;23.97;74.15
53758;BME280;39674;59.860;30.672;2023-09-12T13:18:58;101118.47;;;24.06;73.20
53758;BME280;39674;59.860;30.672;2023-09-12T13:21:31;101109.53;;;24.05;73.48
53758;BME280;39674;59.860;30.672;2023-09-12T13:24:08;101120.63;;;24.02;74.02
53758;BME280;39674;59.860;30.672;2023-09-12T13:27:33;101118.75;;;23.94;73.77
53758;BME280;39674;59.860;30.672;2023-09-12T13:31:08;101117.75;;;23.95;73.95
53758;BME280;39674;59.860;30.672;2023-09-12T13:34:05;101112.78;;;23.91;74.31
53758;BME280;39674;59.860;30.672;2023-09-12T13:40:28;101113.63;;;23.91;75.51
53758;BME280;39674;59.860;30.672;2023-09-12T13:43:35;101117.03;;;23.93;74.42
53758;BME280;39674;59.860;30.672;2023-09-12T13:46:48;101116.81;;;23.86;75.33
53758;BME280;39674;59.860;30.672;2023-09-12T13:49:31;101121.19;;;23.87;75.45
53758;BME280;39674;59.860;30.672;2023-09-12T13:53:21;101116.47;;;23.90;73.70
53758;BME280;39674;59.860;30.672;2023-09-12T13:56:23;101116.81;;;23.86;73.87
53758;BME280;39674;59.860;30.672;2023-09-12T13:59:41;101110.00;;;23.82;74.07
53758;BME280;39674;59.860;30.672;2023-09-12T14:02:16;101115.72;;;23.79;74.97
53758;BME280;39674;59.860;30.672;2023-09-12T14:05:09;101111.97;;;23.72;75.01
53758;BME280;39674;59.860;30.672;2023-09-12T14:14:02;101104.56;;;23.56;76.38
53758;BME280;39674;59.860;30.672;2023-09-12T14:16:43;101098.94;;;23.49;77.17
53758;BME280;39674;59.860;30.672;2023-09-12T14:19:35;101100.44;;;23.44;77.28
53758;BME280;39674;59.860;30.672;2023-09-12T14:22:23;101099.28;;;23.46;77.04
53758;BME280;39674;59.860;30.672;2023-09-12T14:25:00;101103.28;;;23.42;77.23
53758;BME280;39674;59.860;30.672;2023-09-12T14:27:55;101102.50;;;23.32;77.53